Time;durP1;ratioP1;P1;durP2;ratioP2;P2;SDS_P1;SDS_P2;PMS_P1;PMS_P2;Temp;Humidity;BMP_temperature;BMP_pressure;BME280_temperature;BME280_humidity;BME280_pressure;Samples;Min_cycle;Max_cycle;Signal;HPM_P1;HPM_P2
2022/01/11 07:29:58;;;;;;;37.50;17.42;;;7.50;95.00;;;;;;5091809;27;20412;-79
2022/01/11 07:32:24;;;;;;;43.25;21.02;;;7.60;94.80;;;;;;5086265;28;20024;-76
2022/01/11 07:34:50;;;;;;;48.28;21.00;;;7.90;94.30;;;;;;5085814;28;20050;-77
2022/01/11 07:37:16;;;;;;;50.10;21.70;;;8.10;93.60;;;;;;5090676;28;20021;-77
2022/01/11 07:39:42;;;;;;;54.70;22.95;;;8.20;93.00;;;;;;5090795;28;20024;-77
2022/01/11 07:42:08;;;;;;;50.20;24.30;;;8.40;92.70;;;;;;5089268;28;20043;-77
2022/01/11 07:44:34;;;;;;;53.85;21.98;;;8.60;92.20;;;;;;5090255;28;20881;-79
2022/01/11 07:47:02;;;;;;;55.30;24.05;;;8.70;92.00;;;;;;5091173;28;20036;-76
2022/01/11 07:49:28;;;;;;;56.72;24.10;;;8.80;91.60;;;;;;5089370;28;20111;-77
2022/01/11 07:51:54;;;;;;;45.40;21.52;;;8.90;91.30;;;;;;5089642;28;20111;-76
2022/01/11 07:54:20;;;;;;;41.75;19.38;;;8.80;90.60;;;;;;5089161;28;20024;-76
2022/01/11 07:56:45;;;;;;;47.05;20.63;;;8.90;90.30;;;;;;5083750;28;20037;-76
2022/01/11 07:59:11;;;;;;;45.10;20.05;;;8.90;90.40;;;;;;5083544;28;20048;-76
2022/01/11 08:01:38;;;;;;;44.13;21.30;;;8.90;90.40;;;;;;5090075;28;20028;-76
2022/01/11 08:04:04;;;;;;;44.30;20.55;;;8.90;90.20;;;;;;5090532;28;20100;-76
2022/01/11 08:06:30;;;;;;;45.40;16.85;;;9.00;90.00;;;;;;5090671;28;20020;-76
2022/01/11 08:08:55;;;;;;;42.08;19.80;;;9.00;90.00;;;;;;5087335;28;20100;-76
2022/01/11 08:11:21;;;;;;;40.92;17.55;;;9.00;90.00;;;;;;5091424;28;20024;-77
2022/01/11 08:13:47;;;;;;;38.50;18.10;;;9.00;89.60;;;;;;5090722;28;20420;-76
2022/01/11 08:16:12;;;;;;;39.25;19.90;;;8.90;89.90;;;;;;5089505;28;20028;-77
2022/01/11 08:18:38;;;;;;;41.42;19.23;;;9.00;90.00;;;;;;5092012;28;20021;-76
2022/01/11 08:21:05;;;;;;;45.53;19.58;;;9.00;89.90;;;;;;5091553;28;20078;-77
2022/01/11 08:23:33;;;;;;;48.88;19.85;;;9.00;89.90;;;;;;5088752;28;20047;-77
2022/01/11 08:25:59;;;;;;;36.58;17.33;;;9.00;89.50;;;;;;5089548;28;20032;-78
2022/01/11 08:28:25;;;;;;;37.97;17.90;;;9.00;89.60;;;;;;5078637;28;20048;-77
2022/01/11 08:30:51;;;;;;;44.75;18.52;;;8.90;89.30;;;;;;5070992;28;20033;-76
2022/01/11 08:33:17;;;;;;;39.45;19.33;;;8.90;89.40;;;;;;5069606;28;20074;-77
2022/01/11 08:35:43;;;;;;;44.58;18.92;;;8.90;89.40;;;;;;5091731;28;20024;-76
2022/01/11 08:38:10;;;;;;;37.70;19.35;;;8.80;89.70;;;;;;5097576;28;20021;-76
2022/01/11 08:40:35;;;;;;;42.83;19.65;;;8.80;89.60;;;;;;5082731;28;20043;-77
2022/01/11 08:43:03;;;;;;;39.53;19.88;;;8.90;89.90;;;;;;5082412;28;20501;-77
2022/01/11 08:45:30;;;;;;;40.38;16.42;;;8.90;89.90;;;;;;5088099;28;20055;-78
2022/01/11 08:47:55;;;;;;;45.88;18.02;;;8.90;89.90;;;;;;5083158;28;20029;-77
2022/01/11 08:50:25;;;;;;;37.97;18.25;;;8.90;89.80;;;;;;5077263;28;20509;-78
2022/01/11 08:52:51;;;;;;;45.88;17.60;;;8.90;89.90;;;;;;5081947;28;20182;-78
2022/01/11 08:55:18;;;;;;;42.70;17.80;;;9.00;89.40;;;;;;5074580;28;20020;-79
2022/01/11 08:57:44;;;;;;;38.92;17.30;;;9.00;89.50;;;;;;5075852;28;20494;-77
2022/01/11 09:00:16;;;;;;;41.92;16.95;;;8.90;89.60;;;;;;5066173;28;20059;-78
2022/01/11 09:02:46;;;;;;;40.67;17.92;;;8.90;89.30;;;;;;5053367;28;20027;-77
2022/01/11 09:05:14;;;;;;;35.15;16.25;;;8.90;88.90;;;;;;5060369;28;20033;-79
2022/01/11 09:07:41;;;;;;;43.15;16.63;;;8.90;88.80;;;;;;5073867;28;20020;-80
2022/01/11 09:10:08;;;;;;;39.60;17.65;;;8.90;89.10;;;;;;5072024;28;20028;-80
2022/01/11 09:12:34;;;;;;;31.70;15.40;;;8.80;88.90;;;;;;5075418;28;20043;-82
2022/01/11 09:15:01;;;;;;;38.33;16.58;;;8.90;89.30;;;;;;5077199;28;20406;-76
2022/01/11 09:17:26;;;;;;;36.50;16.17;;;9.00;89.20;;;;;;5063915;28;20025;-75
2022/01/11 09:19:52;;;;;;;45.78;17.80;;;9.00;89.30;;;;;;5076836;28;20024;-83
2022/01/11 09:22:18;;;;;;;32.38;16.00;;;9.10;88.70;;;;;;5064062;28;20116;-78
2022/01/11 09:24:44;;;;;;;37.97;14.48;;;9.20;88.90;;;;;;5055293;28;20044;-76
2022/01/11 09:27:10;;;;;;;37.90;16.52;;;9.20;88.60;;;;;;5072159;28;20024;-76
2022/01/11 09:29:37;;;;;;;37.47;16.73;;;9.20;88.40;;;;;;5074012;28;20150;-75
2022/01/11 09:32:04;;;;;;;33.67;14.32;;;9.20;88.30;;;;;;5073837;28;20016;-77
2022/01/11 09:34:31;;;;;;;34.00;16.02;;;9.20;88.20;;;;;;5059541;28;20041;-77
2022/01/11 09:36:56;;;;;;;31.83;15.48;;;9.30;88.20;;;;;;5056706;28;20109;-77
2022/01/11 09:39:23;;;;;;;31.42;11.93;;;9.20;87.90;;;;;;5059598;28;20087;-73
2022/01/11 09:41:49;;;;;;;27.20;13.93;;;9.20;87.90;;;;;;5076558;28;20055;-75
2022/01/11 09:44:16;;;;;;;33.97;14.55;;;9.20;87.50;;;;;;5076323;28;20028;-73
2022/01/11 09:46:42;;;;;;;37.47;15.20;;;9.20;87.50;;;;;;5076589;28;20024;-74
2022/01/11 09:49:08;;;;;;;30.23;14.25;;;9.30;87.50;;;;;;5067584;28;20060;-76
2022/01/11 09:51:36;;;;;;;30.27;12.25;;;9.20;87.00;;;;;;5055202;28;20013;-75
2022/01/11 09:54:03;;;;;;;29.27;15.57;;;9.20;87.40;;;;;;5056246;28;20028;-76
2022/01/11 09:56:28;;;;;;;22.92;11.68;;;9.20;87.40;;;;;;5054883;28;20020;-70
2022/01/11 09:58:55;;;;;;;29.02;13.68;;;9.00;86.70;;;;;;5056559;28;20482;-71
2022/01/11 10:01:21;;;;;;;32.65;13.70;;;9.10;87.60;;;;;;5062067;28;20028;-71
2022/01/11 10:03:59;;;;;;;31.90;15.50;;;9.10;87.90;;;;;;5072189;28;20099;-70
2022/01/11 10:06:25;;;;;;;28.55;13.63;;;9.50;89.10;;;;;;5074759;28;20039;-71
2022/01/11 10:09:26;;;;;;;26.85;13.80;;;9.60;87.20;;;;;;5075201;28;20036;-71
2022/01/11 10:11:58;;;;;;;22.83;11.80;;;9.80;86.80;;;;;;5069637;28;20544;-75
2022/01/11 10:14:33;;;;;;;27.52;13.88;;;9.90;86.00;;;;;;5075326;28;20032;-75
2022/01/11 10:17:20;;;;;;;19.63;11.35;;;9.80;86.30;;;;;;5076791;28;20016;-75
2022/01/11 10:19:48;;;;;;;29.58;14.20;;;9.70;85.40;;;;;;5073782;28;20032;-76
2022/01/11 10:22:19;;;;;;;29.75;13.20;;;9.70;86.70;;;;;;5074729;28;20028;-76
2022/01/11 10:24:52;;;;;;;23.27;12.65;;;9.70;86.00;;;;;;5072128;28;20104;-75
2022/01/11 10:27:36;;;;;;;24.50;11.88;;;9.70;86.00;;;;;;5072261;28;20025;-76
2022/01/11 10:30:07;;;;;;;22.13;12.60;;;9.60;86.10;;;;;;5072233;28;20379;-75
2022/01/11 10:32:40;;;;;;;25.75;12.23;;;9.50;86.00;;;;;;5057347;28;20490;-75
2022/01/11 10:35:10;;;;;;;26.20;13.43;;;9.40;86.90;;;;;;5068104;28;20047;-75
2022/01/11 10:37:40;;;;;;;35.22;15.35;;;9.60;86.80;;;;;;5069657;28;20394;-76
2022/01/11 10:40:14;;;;;;;27.73;12.40;;;9.70;86.90;;;;;;5070537;28;20118;-76
2022/01/11 10:42:46;;;;;;;30.02;13.43;;;9.60;86.20;;;;;;5070062;28;20020;-76
2022/01/11 10:45:34;;;;;;;22.70;11.00;;;9.50;86.90;;;;;;5074154;28;20076;-76
2022/01/11 10:48:12;;;;;;;25.92;13.30;;;9.40;86.50;;;;;;5066666;28;20032;-76
2022/01/11 10:50:42;;;;;;;21.80;12.15;;;9.50;87.50;;;;;;5066827;28;20043;-76
2022/01/11 10:53:22;;;;;;;;;;;9.50;87.10;;;;;;5074421;28;20027;-76
2022/01/11 10:55:53;;;;;;;19.90;9.70;;;9.50;87.30;;;;;;5071886;28;19918;-76
2022/01/11 10:58:19;;;;;;;27.25;13.43;;;9.50;86.80;;;;;;5073861;28;20293;-76
2022/01/11 11:00:53;;;;;;;28.65;11.30;;;9.50;87.60;;;;;;5073610;28;20029;-76
2022/01/11 11:03:24;;;;;;;24.38;13.25;;;9.50;87.10;;;;;;5073248;28;20028;-76
2022/01/11 11:06:10;;;;;;;29.42;14.02;;;9.50;87.50;;;;;;5069020;28;20390;-74
2022/01/11 11:08:40;;;;;;;24.17;12.05;;;9.70;87.50;;;;;;5067970;28;20029;-75
2022/01/11 11:11:08;;;;;;;29.92;13.27;;;9.70;87.10;;;;;;5072082;28;20028;-76
2022/01/11 11:13:54;;;;;;;25.38;12.60;;;9.80;86.90;;;;;;5073231;28;20029;-76
2022/01/11 11:16:28;;;;;;;23.95;12.00;;;9.90;86.90;;;;;;5059521;28;20397;-76
2022/01/11 11:18:57;;;;;;;20.52;11.10;;;10.00;86.70;;;;;;5078135;28;20233;-76
2022/01/11 11:21:32;;;;;;;25.13;12.27;;;9.80;86.40;;;;;;5070932;28;20086;-76
2022/01/11 11:24:06;;;;;;;20.58;11.60;;;9.90;86.60;;;;;;5070233;28;20036;-75
2022/01/11 11:26:38;;;;;;;20.88;11.80;;;9.80;86.50;;;;;;5072092;28;20397;-77
2022/01/11 11:29:05;;;;;;;25.45;12.85;;;9.80;86.30;;;;;;5072663;28;20387;-77
2022/01/11 11:31:34;;;;;;;21.33;11.20;;;9.80;86.60;;;;;;5067443;28;20680;-73
2022/01/11 11:34:00;;;;;;;26.10;11.68;;;9.80;86.20;;;;;;5060723;28;20032;-76
2022/01/11 11:36:27;;;;;;;19.73;11.15;;;9.80;86.40;;;;;;5061826;28;20055;-76
2022/01/11 11:39:17;;;;;;;20.73;11.40;;;9.80;86.40;;;;;;5065174;28;20522;-78
2022/01/11 11:41:48;;;;;;;26.58;11.25;;;9.70;86.50;;;;;;5070050;28;20775;-76
2022/01/11 11:44:21;;;;;;;21.25;12.15;;;9.80;86.90;;;;;;5069691;28;20032;-77
2022/01/11 11:46:47;;;;;;;23.23;11.32;;;9.90;87.00;;;;;;5068391;28;20035;-75
2022/01/11 11:49:15;;;;;;;23.88;11.45;;;10.00;86.60;;;;;;5068771;28;20190;-77
2022/01/11 11:51:42;;;;;;;23.40;11.32;;;10.00;86.30;;;;;;5072517;28;20028;-76
2022/01/11 11:54:16;;;;;;;19.65;10.65;;;10.00;86.00;;;;;;5081324;28;20025;-76
2022/01/11 11:56:47;;;;;;;24.02;11.52;;;10.00;86.00;;;;;;5064754;28;20047;-76
2022/01/11 11:59:13;;;;;;;;;;;10.00;86.30;;;;;;5057529;28;20028;-76
2022/01/11 12:01:42;;;;;;;21.35;10.75;;;10.00;86.10;;;;;;5067276;28;19912;-76
2022/01/11 12:04:31;;;;;;;20.77;10.32;;;10.00;85.80;;;;;;5061223;28;20056;-76
2022/01/11 12:07:00;;;;;;;17.73;7.80;;;10.00;86.10;;;;;;5061459;28;20062;-76
2022/01/11 12:09:32;;;;;;;22.58;11.23;;;10.00;85.70;;;;;;5067041;28;20032;-77
2022/01/11 12:11:59;;;;;;;21.58;11.45;;;10.10;86.20;;;;;;5066458;28;20490;-76
2022/01/11 12:14:37;;;;;;;17.95;10.23;;;10.20;86.00;;;;;;5063982;28;20433;-76
2022/01/11 12:17:16;;;;;;;22.05;12.25;;;10.30;85.00;;;;;;5072668;28;20025;-75
2022/01/11 12:19:46;;;;;;;22.15;11.88;;;10.30;85.60;;;;;;5071912;28;20059;-77
2022/01/11 12:22:11;;;;;;;23.83;10.90;;;10.30;85.10;;;;;;5073608;28;20158;-78
2022/01/11 12:24:39;;;;;;;20.50;11.80;;;10.50;85.20;;;;;;5069044;28;20032;-76
2022/01/11 12:27:10;;;;;;;24.15;11.68;;;10.60;85.00;;;;;;5067575;28;20081;-74
2022/01/11 12:29:37;;;;;;;21.27;11.88;;;10.70;84.70;;;;;;5065504;28;20048;-77
2022/01/11 12:32:09;;;;;;;22.17;11.18;;;10.70;84.40;;;;;;5072374;28;20039;-78
2022/01/11 12:34:47;;;;;;;22.15;11.65;;;10.70;84.30;;;;;;5070158;28;20573;-78
2022/01/11 12:37:29;;;;;;;22.35;12.07;;;10.70;84.40;;;;;;5071037;28;20057;-79
2022/01/11 12:40:12;;;;;;;23.23;11.38;;;10.70;84.50;;;;;;5073728;28;20032;-78
2022/01/11 12:43:04;;;;;;;19.35;9.43;;;10.70;84.50;;;;;;5071934;28;20021;-77
2022/01/11 12:46:04;;;;;;;16.40;10.07;;;10.70;84.00;;;;;;5073123;28;20044;-78
2022/01/11 12:48:57;;;;;;;21.80;10.82;;;10.70;84.10;;;;;;5072664;28;20338;-78
2022/01/11 12:51:52;;;;;;;17.92;10.38;;;10.50;84.60;;;;;;5056795;28;20033;-78
2022/01/11 12:54:36;;;;;;;19.45;9.10;;;10.40;84.60;;;;;;5057928;28;20021;-78
2022/01/11 12:57:14;;;;;;;16.98;9.00;;;10.40;84.50;;;;;;5073568;28;20101;-78
2022/01/11 12:59:43;;;;;;;16.88;8.85;;;10.40;84.60;;;;;;5077430;28;20824;-77
2022/01/11 13:02:12;;;;;;;14.20;8.52;;;10.40;85.30;;;;;;5077320;28;20521;-77
2022/01/11 13:04:49;;;;;;;18.45;9.73;;;10.40;84.70;;;;;;5075522;28;20067;-77
2022/01/11 13:07:48;;;;;;;14.85;8.80;;;10.40;85.10;;;;;;5076107;28;20028;-78
2022/01/11 13:10:24;;;;;;;16.13;11.00;;;10.40;84.80;;;;;;5032744;28;20402;-77
2022/01/11 13:13:04;;;;;;;21.73;12.05;;;10.50;84.70;;;;;;5077448;28;20108;-77
2022/01/11 13:15:38;;;;;;;17.67;8.43;;;10.50;84.50;;;;;;5057024;28;20485;-78
2022/01/11 13:18:10;;;;;;;19.13;9.68;;;10.50;84.40;;;;;;5057305;28;20518;-77
2022/01/11 13:20:42;;;;;;;16.58;9.52;;;10.40;84.20;;;;;;5073661;28;20028;-77
2022/01/11 13:25:44;;;;;;;17.00;10.00;;;10.60;84.90;;;;;;5076556;28;20734;-78
2022/01/11 13:28:11;;;;;;;21.52;10.63;;;10.70;84.40;;;;;;5077094;28;20053;-78
2022/01/11 13:30:49;;;;;;;18.50;10.90;;;10.70;84.00;;;;;;5076478;28;20020;-78
2022/01/11 13:33:31;;;;;;;17.83;10.52;;;10.80;84.20;;;;;;5061189;28;20631;-78
2022/01/11 13:36:07;;;;;;;17.08;9.50;;;10.80;84.20;;;;;;5051804;28;20033;-78
2022/01/11 13:38:33;;;;;;;26.02;10.30;;;10.90;83.90;;;;;;5053040;28;20048;-78
2022/01/11 13:41:02;;;;;;;16.08;9.63;;;10.90;84.20;;;;;;5056257;28;20032;-79
2022/01/11 13:43:39;;;;;;;15.63;9.63;;;10.90;83.80;;;;;;5050340;28;20051;-78
2022/01/11 13:46:19;;;;;;;17.17;8.65;;;10.80;83.80;;;;;;5053409;28;20096;-78
2022/01/11 13:48:45;;;;;;;13.82;8.95;;;10.70;84.40;;;;;;5045921;28;20044;-78
2022/01/11 13:51:11;;;;;;;14.18;9.10;;;10.80;84.50;;;;;;5054732;28;20036;-76
2022/01/11 13:53:38;;;;;;;18.20;9.48;;;10.70;84.10;;;;;;5049505;28;20491;-82
2022/01/11 13:56:08;;;;;;;20.00;9.30;;;10.80;84.20;;;;;;5036193;28;20495;-78
2022/01/11 13:58:40;;;;;;;16.80;9.32;;;10.70;84.90;;;;;;5051899;28;20090;-78
2022/01/11 14:01:14;;;;;;;15.90;9.52;;;10.80;85.00;;;;;;5036025;28;20030;-77
2022/01/11 14:03:40;;;;;;;15.65;9.93;;;10.70;85.00;;;;;;5038901;28;20052;-76
2022/01/11 14:06:14;;;;;;;14.18;7.93;;;10.80;84.70;;;;;;5054105;28;20032;-77
2022/01/11 14:08:44;;;;;;;19.17;9.20;;;10.70;84.40;;;;;;5054827;28;20036;-77
2022/01/11 14:11:13;;;;;;;27.35;9.93;;;10.70;84.50;;;;;;5037919;28;20025;-77
2022/01/11 14:13:41;;;;;;;23.20;10.57;;;10.70;84.80;;;;;;5042266;28;20440;-77
2022/01/11 14:16:12;;;;;;;18.02;9.40;;;10.70;84.20;;;;;;5053555;28;20029;-77
2022/01/11 14:18:38;;;;;;;16.92;9.27;;;10.70;84.40;;;;;;5054531;28;20028;-75
2022/01/11 14:21:10;;;;;;;13.93;8.45;;;10.70;84.30;;;;;;5044948;28;20021;-77
2022/01/11 14:23:37;;;;;;;18.35;9.10;;;10.70;84.50;;;;;;5053997;28;20032;-77
2022/01/11 14:26:05;;;;;;;20.25;10.45;;;10.70;84.30;;;;;;5035793;28;20036;-77
2022/01/11 14:28:37;;;;;;;15.45;9.05;;;10.70;84.20;;;;;;5067306;28;20568;-76
2022/01/11 14:31:18;;;;;;;19.33;8.75;;;10.80;84.60;;;;;;5035230;28;20450;-77
2022/01/11 14:33:44;;;;;;;;;;;10.90;84.40;;;;;;5055258;28;20029;-74
2022/01/11 14:36:13;;;;;;;13.55;8.48;;;10.80;84.30;;;;;;5052300;28;19923;-76
2022/01/11 14:38:43;;;;;;;15.98;9.35;;;10.90;84.60;;;;;;5050587;28;20135;-75
2022/01/11 14:41:43;;;;;;;16.63;8.90;;;10.80;84.30;;;;;;5052353;28;20040;-72
2022/01/11 14:44:22;;;;;;;25.02;9.82;;;10.90;84.80;;;;;;5047390;28;20171;-74
2022/01/11 14:46:53;;;;;;;17.17;9.73;;;10.80;84.80;;;;;;5053685;28;20525;-74
2022/01/11 14:49:23;;;;;;;16.80;9.65;;;10.80;84.70;;;;;;5053236;28;20090;-72
2022/01/11 14:51:52;;;;;;;14.60;8.48;;;10.80;84.40;;;;;;5054549;28;20032;-74
2022/01/11 14:54:21;;;;;;;15.45;8.23;;;10.80;84.50;;;;;;5053333;28;20021;-74
2022/01/11 14:56:52;;;;;;;13.23;7.63;;;10.80;84.20;;;;;;5053584;28;20021;-74
2022/01/11 14:59:20;;;;;;;12.98;7.82;;;10.70;83.50;;;;;;5035743;28;21712;-74
2022/01/11 15:01:53;;;;;;;12.90;8.13;;;10.70;84.20;;;;;;5054171;28;20119;-75
2022/01/11 15:04:22;;;;;;;16.95;7.90;;;10.70;84.30;;;;;;5053217;28;20054;-73
2022/01/11 15:06:54;;;;;;;14.32;8.20;;;10.80;84.10;;;;;;5053266;28;20110;-76
2022/01/11 15:09:26;;;;;;;14.90;8.60;;;10.80;84.10;;;;;;5048054;28;20025;-73
2022/01/11 15:11:57;;;;;;;16.35;7.72;;;10.70;84.10;;;;;;5039475;28;20034;-75
2022/01/11 15:14:33;;;;;;;17.50;7.65;;;10.70;83.70;;;;;;5035096;28;20049;-76
2022/01/11 15:17:01;;;;;;;13.02;7.68;;;10.80;84.20;;;;;;5047317;28;20094;-75
2022/01/11 15:19:27;;;;;;;14.30;7.78;;;10.80;83.40;;;;;;5051843;28;20032;-75
2022/01/11 15:21:53;;;;;;;17.45;9.02;;;10.80;84.10;;;;;;5061258;28;20087;-75
2022/01/11 15:24:20;;;;;;;12.00;7.25;;;10.80;84.10;;;;;;5061470;28;20633;-75
2022/01/11 15:26:47;;;;;;;19.30;9.05;;;10.90;83.80;;;;;;5063672;28;20036;-75
2022/01/11 15:29:18;;;;;;;19.27;7.90;;;10.90;83.90;;;;;;5070994;28;20044;-75
2022/01/11 15:31:44;;;;;;;17.25;9.10;;;10.80;82.90;;;;;;5055929;28;21683;-75
2022/01/11 15:34:12;;;;;;;14.73;8.80;;;10.80;83.10;;;;;;5052693;28;20060;-75
2022/01/11 15:36:38;;;;;;;15.07;8.30;;;10.80;83.50;;;;;;5052676;28;20435;-75
2022/01/11 15:39:05;;;;;;;16.60;8.88;;;10.80;83.80;;;;;;5052917;28;20083;-77
2022/01/11 15:41:31;;;;;;;23.05;8.35;;;10.80;83.90;;;;;;5049698;28;20055;-80
2022/01/11 15:43:59;;;;;;;18.17;7.70;;;10.80;84.10;;;;;;5066448;28;20482;-75
2022/01/11 15:46:27;;;;;;;13.15;6.90;;;10.70;83.30;;;;;;5061579;28;20044;-76
2022/01/11 15:48:53;;;;;;;10.18;6.53;;;10.70;83.30;;;;;;5055052;28;20053;-76
2022/01/11 15:51:21;;;;;;;13.38;8.32;;;10.60;83.30;;;;;;5054505;28;20055;-75
2022/01/11 15:53:47;;;;;;;12.93;8.75;;;10.70;83.80;;;;;;5055357;28;20025;-75
2022/01/11 15:56:13;;;;;;;16.80;9.05;;;10.60;84.00;;;;;;5054636;28;20029;-76
2022/01/11 15:58:39;;;;;;;23.90;8.45;;;10.70;84.20;;;;;;5056720;28;20066;-75
2022/01/11 16:01:04;;;;;;;14.82;7.82;;;10.60;84.70;;;;;;5046124;28;20108;-75
2022/01/11 16:03:30;;;;;;;17.15;8.02;;;10.50;84.50;;;;;;5059955;28;20036;-75
2022/01/11 16:05:57;;;;;;;17.38;8.25;;;10.30;84.80;;;;;;5057246;28;20029;-74
2022/01/11 16:08:24;;;;;;;16.17;7.75;;;10.40;85.10;;;;;;5056999;28;20048;-75
2022/01/11 16:10:50;;;;;;;12.75;8.27;;;10.40;84.90;;;;;;5055381;28;20095;-74
2022/01/11 16:13:15;;;;;;;18.73;9.13;;;10.40;85.00;;;;;;5056635;28;20116;-75
2022/01/11 16:15:43;;;;;;;19.25;9.15;;;10.40;84.90;;;;;;5055047;28;20471;-74
2022/01/11 16:18:09;;;;;;;14.52;7.65;;;10.50;85.20;;;;;;5053937;28;20533;-74
2022/01/11 16:20:35;;;;;;;15.35;7.90;;;10.50;84.70;;;;;;5056620;28;20013;-74
2022/01/11 16:23:01;;;;;;;14.40;7.80;;;10.50;84.70;;;;;;5053891;28;20024;-74
2022/01/11 16:25:26;;;;;;;13.75;7.85;;;10.50;84.80;;;;;;5054040;28;20031;-74
2022/01/11 16:27:53;;;;;;;22.08;8.38;;;10.50;85.00;;;;;;5055091;28;20048;-75
2022/01/11 16:30:29;;;;;;;14.00;7.55;;;10.50;85.10;;;;;;5057403;28;20014;-74
2022/01/11 16:33:00;;;;;;;13.85;7.45;;;10.50;85.20;;;;;;5056512;28;20050;-74
2022/01/11 16:35:29;;;;;;;16.65;8.15;;;10.50;84.80;;;;;;5055695;28;20017;-74
2022/01/11 16:37:55;;;;;;;21.73;9.10;;;10.50;85.20;;;;;;5057744;28;20757;-74
2022/01/11 16:43:00;;;;;;;13.98;7.85;;;10.50;85.50;;;;;;5060989;28;20032;-74
2022/01/11 16:45:27;;;;;;;13.93;7.32;;;10.40;85.50;;;;;;5064680;28;20013;-75
2022/01/11 16:47:54;;;;;;;16.80;7.95;;;10.40;85.60;;;;;;5047889;28;20092;-74
2022/01/11 16:50:19;;;;;;;18.63;8.00;;;10.40;85.50;;;;;;5056880;28;20017;-74
2022/01/11 16:52:45;;;;;;;20.45;7.93;;;10.30;85.00;;;;;;5055408;28;20059;-74
2022/01/11 16:55:11;;;;;;;20.02;9.45;;;10.40;85.20;;;;;;5051847;28;20025;-74
2022/01/11 16:57:37;;;;;;;25.02;12.20;;;10.40;85.30;;;;;;5047091;28;20082;-74
2022/01/11 17:00:07;;;;;;;24.02;13.82;;;10.40;85.20;;;;;;5052850;28;20039;-74
2022/01/11 17:02:33;;;;;;;;;;;10.40;85.40;;;;;;5048237;28;20407;-74
2022/01/11 17:04:59;;;;;;;28.67;14.88;;;10.40;85.50;;;;;;5063669;28;19909;-74
2022/01/11 17:07:32;;;;;;;36.17;20.60;;;10.40;85.10;;;;;;5057156;28;20055;-74
2022/01/11 17:10:02;;;;;;;29.55;17.25;;;10.50;85.30;;;;;;5054762;28;20036;-74
2022/01/11 17:12:28;;;;;;;36.80;19.65;;;10.50;85.50;;;;;;5050049;28;20112;-73
2022/01/11 17:14:54;;;;;;;37.90;18.92;;;10.50;85.20;;;;;;5044298;28;20083;-73
2022/01/11 17:17:20;;;;;;;22.23;14.43;;;10.40;85.50;;;;;;5052795;28;20507;-73
2022/01/11 17:19:46;;;;;;;19.85;11.00;;;10.40;85.30;;;;;;5056561;28;20067;-75
2022/01/11 17:22:12;;;;;;;20.05;11.70;;;10.30;85.10;;;;;;5055533;28;20040;-75
2022/01/11 17:24:38;;;;;;;22.98;12.90;;;10.30;85.70;;;;;;5059121;28;20048;-75
2022/01/11 17:27:04;;;;;;;26.52;13.25;;;10.20;85.90;;;;;;5065858;28;20041;-75
2022/01/11 17:29:32;;;;;;;18.45;12.90;;;10.20;85.80;;;;;;5068253;28;20049;-75
2022/01/11 17:31:58;;;;;;;23.67;15.02;;;10.20;86.10;;;;;;5043336;28;20035;-75
2022/01/11 17:34:29;;;;;;;21.77;14.57;;;10.20;86.10;;;;;;5056050;28;20498;-75
2022/01/11 17:36:55;;;;;;;23.35;13.65;;;10.10;86.00;;;;;;5056230;28;20056;-75
2022/01/11 17:39:22;;;;;;;19.83;14.25;;;10.10;86.20;;;;;;5065635;28;20032;-77
2022/01/11 17:41:48;;;;;;;18.17;13.00;;;10.10;86.30;;;;;;5062287;28;20062;-76
2022/01/11 17:44:13;;;;;;;19.90;13.40;;;10.10;86.10;;;;;;5056037;28;20496;-76
2022/01/11 17:46:40;;;;;;;29.65;14.40;;;10.10;86.40;;;;;;5059209;28;20033;-76
2022/01/11 17:49:06;;;;;;;22.08;11.23;;;10.10;86.10;;;;;;5074624;28;20171;-77
2022/01/11 17:51:33;;;;;;;24.27;11.88;;;10.00;85.90;;;;;;5052711;28;20029;-76
2022/01/11 17:53:59;;;;;;;21.58;11.20;;;10.00;86.00;;;;;;5059553;28;20061;-76
2022/01/11 17:56:25;;;;;;;20.40;10.82;;;9.90;86.00;;;;;;5041174;28;20097;-74
2022/01/11 17:58:53;;;;;;;18.45;10.18;;;9.80;86.10;;;;;;5049015;28;20062;-74
2022/01/11 18:01:22;;;;;;;18.70;10.88;;;9.80;86.00;;;;;;5054090;28;20445;-75
2022/01/11 18:03:50;;;;;;;24.67;9.77;;;9.80;86.00;;;;;;5056247;28;20036;-75
2022/01/11 18:06:16;;;;;;;19.20;11.10;;;9.80;86.00;;;;;;5052370;28;20108;-75
2022/01/11 18:08:42;;;;;;;21.02;11.57;;;9.90;86.00;;;;;;5053083;28;20040;-76
2022/01/11 18:11:10;;;;;;;24.17;11.63;;;9.80;85.70;;;;;;5055085;28;20021;-74
2022/01/11 18:13:39;;;;;;;20.92;11.50;;;9.80;85.90;;;;;;5054298;28;20100;-76
2022/01/11 18:16:06;;;;;;;24.80;13.83;;;9.70;86.10;;;;;;5047585;28;20021;-75
2022/01/11 18:18:33;;;;;;;27.52;13.02;;;9.80;86.60;;;;;;5053731;28;20071;-76
2022/01/11 18:20:58;;;;;;;21.45;12.95;;;9.80;86.40;;;;;;5052839;28;20131;-76
2022/01/11 18:23:24;;;;;;;25.67;13.32;;;9.80;86.20;;;;;;5051432;28;20032;-76
2022/01/11 18:25:52;;;;;;;24.27;15.68;;;9.90;86.50;;;;;;5035213;28;20032;-76
2022/01/11 18:28:18;;;;;;;22.98;14.20;;;9.90;86.30;;;;;;5049237;28;20052;-74
2022/01/11 18:30:45;;;;;;;20.23;12.10;;;9.90;86.30;;;;;;5054803;28;20016;-77
2022/01/11 18:33:12;;;;;;;26.13;13.75;;;9.90;86.30;;;;;;5051791;28;20032;-75
2022/01/11 18:35:38;;;;;;;26.17;14.90;;;9.90;86.20;;;;;;5050609;28;20017;-74
2022/01/11 18:38:04;;;;;;;24.50;13.50;;;10.00;86.00;;;;;;5055966;28;20044;-73
2022/01/11 18:40:31;;;;;;;25.15;14.35;;;10.00;86.30;;;;;;5054659;28;20092;-74
2022/01/11 18:42:57;;;;;;;26.48;16.55;;;10.00;85.70;;;;;;5047225;28;20029;-75
2022/01/11 18:45:23;;;;;;;29.67;17.00;;;10.00;85.70;;;;;;5043204;28;20033;-74
2022/01/11 18:47:49;;;;;;;29.08;17.58;;;10.10;85.80;;;;;;5051310;28;20513;-75
2022/01/11 18:50:15;;;;;;;33.70;16.63;;;10.00;85.80;;;;;;5040636;28;20036;-75
2022/01/11 18:52:41;;;;;;;31.58;17.52;;;10.10;86.10;;;;;;5033366;28;20107;-74
2022/01/11 18:55:08;;;;;;;32.65;18.90;;;10.10;86.00;;;;;;5048024;28;20505;-73
2022/01/11 18:57:34;;;;;;;28.52;17.00;;;10.10;85.90;;;;;;5032128;28;20029;-83
2022/01/11 19:00:20;;;;;;;24.77;16.83;;;10.20;86.10;;;;;;5042416;28;20759;-74
2022/01/11 19:02:47;;;;;;;32.40;18.85;;;10.20;86.20;;;;;;5038425;28;20036;-73
2022/01/11 19:05:15;;;;;;;40.28;20.77;;;10.20;86.00;;;;;;5067112;28;20040;-72
2022/01/11 19:07:43;;;;;;;29.45;18.98;;;10.20;85.70;;;;;;5042657;28;20033;-74
2022/01/11 19:10:10;;;;;;;33.72;20.02;;;10.20;85.80;;;;;;5035365;28;20026;-74
2022/01/11 19:12:36;;;;;;;36.20;22.00;;;10.20;86.00;;;;;;5041831;28;20482;-75
2022/01/11 19:15:04;;;;;;;33.88;22.08;;;10.20;85.70;;;;;;5037900;28;20029;-75
2022/01/11 19:17:30;;;;;;;35.47;22.88;;;10.20;85.70;;;;;;5042232;28;20139;-73
2022/01/11 19:19:56;;;;;;;35.40;21.98;;;10.10;85.70;;;;;;5039701;28;20584;-74
2022/01/11 19:22:25;;;;;;;38.05;23.98;;;10.20;85.70;;;;;;5032894;28;20035;-74
2022/01/11 19:24:57;;;;;;;38.40;23.10;;;10.10;85.70;;;;;;5038750;28;20033;-76
2022/01/11 19:27:28;;;;;;;48.15;29.95;;;10.20;85.90;;;;;;5032148;28;20039;-76
2022/01/11 19:29:55;;;;;;;35.60;22.65;;;10.10;85.70;;;;;;5038034;28;20072;-77
2022/01/11 19:32:22;;;;;;;45.75;27.30;;;10.00;86.00;;;;;;5031681;28;20487;-76
2022/01/11 19:34:49;;;;;;;42.70;24.67;;;10.00;85.70;;;;;;5032692;28;20100;-80
2022/01/11 19:37:20;;;;;;;36.45;21.88;;;10.00;86.20;;;;;;5038107;28;20033;-76
2022/01/11 19:39:50;;;;;;;49.17;24.23;;;10.00;86.00;;;;;;5031247;28;20026;-75
2022/01/11 19:42:17;;;;;;;66.75;34.42;;;10.00;86.00;;;;;;5031710;28;20037;-75
2022/01/11 19:44:43;;;;;;;58.75;31.77;;;10.00;86.00;;;;;;5037015;28;20018;-74
2022/01/11 19:47:09;;;;;;;54.33;27.98;;;10.00;86.20;;;;;;5034775;28;20036;-77
2022/01/11 19:49:34;;;;;;;43.38;24.58;;;10.10;86.30;;;;;;5042855;28;20025;-76
2022/01/11 19:52:01;;;;;;;42.60;24.25;;;10.10;86.30;;;;;;5050303;28;20044;-76
2022/01/11 19:54:27;;;;;;;42.85;23.80;;;10.00;86.30;;;;;;5050734;28;20021;-76
2022/01/11 19:56:55;;;;;;;42.50;23.95;;;10.10;86.30;;;;;;5041687;28;20155;-75
2022/01/11 19:59:21;;;;;;;38.03;23.90;;;10.10;86.30;;;;;;5044449;28;20033;-76
2022/01/11 20:01:47;;;;;;;42.78;23.98;;;10.10;86.30;;;;;;5052450;28;20483;-76
2022/01/11 20:04:13;;;;;;;39.13;25.50;;;10.10;86.20;;;;;;5049556;28;20057;-76
2022/01/11 20:06:40;;;;;;;44.20;25.23;;;10.00;86.30;;;;;;5041522;28;20033;-76
2022/01/11 20:09:06;;;;;;;41.90;25.50;;;10.10;86.20;;;;;;5030277;28;20128;-77
2022/01/11 20:11:34;;;;;;;41.97;23.52;;;10.10;86.30;;;;;;5039070;28;20112;-76
2022/01/11 20:14:02;;;;;;;39.60;23.85;;;10.20;86.30;;;;;;5043575;28;20025;-76
2022/01/11 20:16:28;;;;;;;45.80;26.70;;;10.20;86.30;;;;;;5034203;28;20043;-76
2022/01/11 20:18:54;;;;;;;40.28;25.50;;;10.20;86.20;;;;;;5039894;28;20137;-76
2022/01/11 20:21:24;;;;;;;40.88;25.33;;;10.20;86.20;;;;;;5046972;28;20058;-76